createdAt,value
2019-01-02T00:00:50.588Z,1.4
2019-01-02T00:01:57.795Z,1.3
2019-01-02T00:03:05.091Z,1.2
2019-01-02T00:04:13.266Z,1.2
2019-01-02T00:05:20.463Z,1.2
2019-01-02T00:06:27.985Z,1.2
2019-01-02T00:07:35.889Z,1.2
2019-01-02T00:08:43.090Z,1.3
2019-01-02T00:09:50.605Z,1.3
2019-01-02T00:10:58.383Z,1.3
2019-01-02T00:12:06.432Z,1.3
2019-01-02T00:13:13.632Z,1.4
2019-01-02T00:14:21.059Z,1.3
2019-01-02T00:15:28.773Z,1.4
2019-01-02T00:16:35.440Z,1.4
2019-01-02T00:17:42.579Z,1.4
2019-01-02T00:18:50.738Z,1.4
2019-01-02T00:19:58.161Z,1.4
2019-01-02T00:21:05.610Z,1.4
2019-01-02T00:22:13.395Z,1.5
2019-01-02T00:23:20.539Z,1.6
2019-01-02T00:24:27.740Z,1.6
2019-01-02T00:25:35.284Z,1.6
2019-01-02T00:26:43.557Z,1.6
2019-01-02T00:27:50.764Z,1.6
2019-01-02T00:28:58.236Z,1.6
2019-01-02T00:30:06.385Z,1.6
2019-01-02T00:31:13.308Z,1.6
2019-01-02T00:32:20.514Z,1.6
2019-01-02T00:33:27.938Z,1.6
2019-01-02T00:34:35.906Z,1.6
2019-01-02T00:35:43.116Z,1.6
2019-01-02T00:36:50.498Z,1.6
2019-01-02T00:37:58.346Z,1.6
2019-01-02T00:39:05.272Z,1.6
2019-01-02T00:40:12.599Z,1.6
2019-01-02T00:41:20.717Z,1.7
2019-01-02T00:42:27.944Z,1.6
2019-01-02T00:43:35.436Z,1.7
2019-01-02T00:44:43.563Z,1.7
2019-01-02T00:45:50.761Z,1.8
2019-01-02T00:46:57.684Z,1.8
2019-01-02T00:48:05.222Z,1.8
2019-01-02T00:49:13.198Z,1.8
2019-01-02T00:50:20.379Z,1.8
2019-01-02T00:51:27.576Z,1.8
2019-01-02T00:52:35.466Z,1.8
2019-01-02T00:53:42.663Z,1.8
2019-01-02T00:54:50.178Z,1.8
2019-01-02T00:55:58.121Z,1.8
2019-01-02T00:57:05.318Z,1.8
2019-01-02T00:58:12.514Z,1.8
2019-01-02T00:59:20.409Z,1.8
2019-01-02T01:00:27.604Z,1.8
2019-01-02T01:01:35.140Z,1.8
2019-01-02T01:02:43.405Z,1.8
2019-01-02T01:03:50.599Z,1.8
2019-01-02T01:04:58.101Z,1.8
2019-01-02T01:06:05.984Z,1.9
2019-01-02T01:07:13.179Z,1.9
2019-01-02T01:08:20.723Z,1.9
2019-01-02T01:09:28.953Z,1.8
2019-01-02T01:10:36.148Z,1.9
2019-01-02T01:11:43.551Z,1.9
2019-01-02T01:12:51.616Z,1.9
2019-01-02T01:13:58.823Z,1.9
2019-01-02T01:15:06.347Z,1.9
2019-01-02T01:16:14.516Z,1.9
2019-01-02T01:17:21.712Z,1.9
2019-01-02T01:18:28.970Z,1.9
2019-01-02T01:19:37.190Z,1.9
2019-01-02T01:20:44.118Z,2
2019-01-02T01:21:51.320Z,2
2019-01-02T01:22:58.876Z,2
2019-01-02T01:24:06.525Z,1.9
2019-01-02T01:25:13.721Z,1.9
2019-01-02T01:26:21.089Z,1.9
2019-01-02T01:27:28.550Z,1.9
2019-01-02T01:28:36.681Z,1.9
2019-01-02T01:29:43.909Z,1.9
2019-01-02T01:30:51.200Z,1.9
2019-01-02T01:31:59.525Z,2
2019-01-02T01:33:06.447Z,2
2019-01-02T01:34:13.644Z,2
2019-01-02T01:35:21.139Z,2
2019-01-02T01:36:29.309Z,2
2019-01-02T01:37:36.502Z,2
2019-01-02T01:38:43.425Z,2
2019-01-02T01:39:50.876Z,2
2019-01-02T01:40:59.070Z,2
2019-01-02T01:42:06.270Z,2
2019-01-02T01:43:13.489Z,1.9
2019-01-02T01:44:20.813Z,1.9
2019-01-02T01:45:28.354Z,1.9
2019-01-02T01:46:35.547Z,1.9
2019-01-02T01:47:42.948Z,1.9
2019-01-02T01:48:50.985Z,1.9
2019-01-02T01:49:57.918Z,1.9
2019-01-02T01:51:05.116Z,1.8
2019-01-02T01:52:12.017Z,1.8
2019-01-02T01:53:19.888Z,1.8
2019-01-02T01:54:27.087Z,1.9
2019-01-02T01:55:34.497Z,1.9
2019-01-02T01:56:42.015Z,1.9
2019-01-02T01:57:49.805Z,1.9
2019-01-02T01:58:56.744Z,1.8
2019-01-02T02:00:04.019Z,1.8
2019-01-02T02:01:12.197Z,1.8
2019-01-02T02:02:19.119Z,1.8
2019-01-02T02:03:26.313Z,1.8
2019-01-02T02:04:33.544Z,1.8
2019-01-02T02:05:41.310Z,1.7
2019-01-02T02:06:48.503Z,1.8
2019-01-02T02:07:55.707Z,1.7
2019-01-02T02:09:03.303Z,1.7
2019-01-02T02:10:11.316Z,1.7
2019-01-02T02:11:18.525Z,1.6
2019-01-02T02:12:26.124Z,1.6
2019-01-02T02:13:34.310Z,1.7
2019-01-02T02:14:42.147Z,1.7
2019-01-02T02:15:49.072Z,1.7
2019-01-02T02:16:56.573Z,1.7
2019-01-02T02:18:04.682Z,1.7
2019-01-02T02:19:11.874Z,1.8
2019-01-02T02:20:19.070Z,1.7
2019-01-02T02:21:26.297Z,1.7
2019-01-02T02:22:34.062Z,1.7
2019-01-02T02:23:41.248Z,1.7
2019-01-02T02:24:48.697Z,1.7
2019-01-02T02:25:56.319Z,1.7
2019-01-02T02:27:04.406Z,1.7
2019-01-02T02:28:11.328Z,1.8
2019-01-02T02:29:18.830Z,1.8
2019-01-02T02:30:26.453Z,1.8
2019-01-02T02:31:33.973Z,1.9
2019-01-02T02:32:41.801Z,1.9
2019-01-02T02:33:50.326Z,1.9
2019-01-02T02:34:58.607Z,1.9
2019-01-02T02:36:06.266Z,1.9
2019-01-02T02:37:14.154Z,2
2019-01-02T02:38:21.747Z,2
2019-01-02T02:39:30.201Z,2
2019-01-02T02:40:38.151Z,2
2019-01-02T02:41:45.252Z,2
2019-01-02T02:42:52.926Z,2
2019-01-02T02:44:01.387Z,2
2019-01-02T02:45:09.553Z,2
2019-01-02T02:46:17.700Z,2
2019-01-02T02:47:25.127Z,2
2019-01-02T02:48:33.198Z,2
2019-01-02T02:49:41.368Z,2
2019-01-02T02:50:48.593Z,2.1
2019-01-02T02:51:56.791Z,2.1
2019-01-02T02:53:03.925Z,2.1
2019-01-02T02:54:12.315Z,2
2019-01-02T02:55:20.479Z,2
2019-01-02T02:56:27.642Z,2
2019-01-02T02:57:35.080Z,2
2019-01-02T02:58:42.496Z,2
2019-01-02T02:59:50.565Z,2
2019-01-02T03:00:57.746Z,2
2019-01-02T03:02:06.121Z,2
2019-01-02T03:03:14.277Z,2
2019-01-02T03:04:21.804Z,2
2019-01-02T03:05:29.876Z,2
2019-01-02T03:06:37.290Z,2
2019-01-02T03:07:45.601Z,2
2019-01-02T03:08:53.928Z,2
2019-01-02T03:10:01.348Z,2
2019-01-02T03:11:09.641Z,2
2019-01-02T03:12:17.701Z,2
2019-01-02T03:13:24.879Z,2
2019-01-02T03:14:32.813Z,2
2019-01-02T03:15:40.227Z,2
2019-01-02T03:16:48.443Z,2
2019-01-02T03:17:56.569Z,2
2019-01-02T03:19:04.088Z,1.9
2019-01-02T03:20:12.510Z,1.9
2019-01-02T03:21:20.515Z,2
2019-01-02T03:22:28.530Z,2
2019-01-02T03:23:36.420Z,1.9
2019-01-02T03:24:43.900Z,2
2019-01-02T03:25:52.163Z,1.9
2019-01-02T03:27:00.333Z,1.9
2019-01-02T03:28:07.870Z,1.9
2019-01-02T03:29:15.561Z,1.9
2019-01-02T03:30:23.762Z,1.9
2019-01-02T03:31:32.157Z,1.9
2019-01-02T03:32:40.381Z,1.9
2019-01-02T03:33:48.286Z,1.9
2019-01-02T03:34:55.481Z,1.9
2019-01-02T03:36:02.675Z,1.8
2019-01-02T03:37:09.601Z,1.9
2019-01-02T03:38:16.790Z,1.9
2019-01-02T03:39:23.982Z,1.9
2019-01-02T03:40:31.175Z,1.9
2019-01-02T03:41:38.097Z,1.9
2019-01-02T03:42:45.291Z,1.9
2019-01-02T03:43:51.940Z,2
2019-01-02T03:44:59.144Z,2
2019-01-02T03:46:06.442Z,2
2019-01-02T03:47:28.282Z,1.9
2019-01-02T03:48:35.478Z,2
2019-01-02T03:49:42.675Z,2
2019-01-02T03:50:49.891Z,2
2019-01-02T03:51:57.087Z,2
2019-01-02T03:53:04.285Z,2
2019-01-02T03:54:11.477Z,2
2019-01-02T03:55:18.670Z,2
2019-01-02T03:56:25.865Z,2
2019-01-02T03:57:33.056Z,2
2019-01-02T03:58:39.971Z,2
2019-01-02T03:59:46.888Z,1.9
2019-01-02T04:00:54.078Z,2
2019-01-02T04:02:00.969Z,2
2019-01-02T04:03:07.901Z,2
2019-01-02T04:04:15.115Z,2
2019-01-02T04:05:22.306Z,2
2019-01-02T04:06:29.514Z,2
2019-01-02T04:07:36.713Z,2.1
2019-01-02T04:08:43.907Z,2
2019-01-02T04:09:51.131Z,2.1
2019-01-02T04:10:58.340Z,2.1
2019-01-02T04:12:05.538Z,2.1
2019-01-02T04:13:12.733Z,2.1
2019-01-02T04:14:19.924Z,2.1
2019-01-02T04:15:27.132Z,2.1
2019-01-02T04:16:34.325Z,2
2019-01-02T04:17:41.260Z,2.1
2019-01-02T04:18:48.448Z,2.1
2019-01-02T04:19:55.369Z,2.1
2019-01-02T04:21:02.593Z,2.1
2019-01-02T04:22:09.768Z,2.1
2019-01-02T04:23:16.687Z,2.1
2019-01-02T04:24:23.609Z,2.1
2019-01-02T04:25:30.536Z,2.1
2019-01-02T04:26:37.462Z,2.1
2019-01-02T04:27:44.657Z,2.1
2019-01-02T04:28:51.579Z,2.1
2019-01-02T04:29:58.818Z,2.1
2019-01-02T04:31:05.997Z,2
2019-01-02T04:32:12.914Z,2
2019-01-02T04:33:20.125Z,2
2019-01-02T04:34:27.309Z,2
2019-01-02T04:35:34.226Z,2
2019-01-02T04:36:41.420Z,2
2019-01-02T04:37:48.611Z,2
2019-01-02T04:38:55.558Z,2
2019-01-02T04:40:02.744Z,1.9
2019-01-02T04:41:09.942Z,1.9
2019-01-02T04:42:17.140Z,1.9
2019-01-02T04:43:24.332Z,1.8
2019-01-02T04:44:31.733Z,1.8
2019-01-02T04:45:38.932Z,1.8
2019-01-02T04:46:46.126Z,1.8
2019-01-02T04:47:53.323Z,1.8
2019-01-02T04:49:00.513Z,1.8
2019-01-02T04:50:07.436Z,1.8
2019-01-02T04:51:14.367Z,1.8
2019-01-02T04:52:21.012Z,1.8
2019-01-02T04:53:28.208Z,1.8
2019-01-02T04:54:35.405Z,1.8
2019-01-02T04:55:42.595Z,1.7
2019-01-02T04:56:49.785Z,1.7
2019-01-02T04:57:56.984Z,1.7
2019-01-02T04:59:03.907Z,1.7
2019-01-02T05:00:11.105Z,1.7
2019-01-02T05:01:18.021Z,1.7
2019-01-02T05:02:24.935Z,1.7
2019-01-02T05:03:32.127Z,1.6
2019-01-02T05:04:39.325Z,1.6
2019-01-02T05:05:46.541Z,1.6
2019-01-02T05:06:53.739Z,1.6
2019-01-02T05:08:00.951Z,1.6
2019-01-02T05:09:08.150Z,1.6
2019-01-02T05:10:15.345Z,1.7
2019-01-02T05:11:22.541Z,1.7
2019-01-02T05:12:29.462Z,1.7
2019-01-02T05:13:36.657Z,1.7
2019-01-02T05:14:43.854Z,1.7
2019-01-02T05:15:50.497Z,1.7
2019-01-02T05:16:57.692Z,1.7
2019-01-02T05:18:04.884Z,1.7
2019-01-02T05:19:12.092Z,1.7
2019-01-02T05:20:19.293Z,1.7
2019-01-02T05:21:26.214Z,1.7
2019-01-02T05:22:33.138Z,1.7
2019-01-02T05:23:40.066Z,1.7
2019-01-02T05:24:46.984Z,1.7
2019-01-02T05:25:54.177Z,1.7
2019-01-02T05:27:01.383Z,1.7
2019-01-02T05:28:08.585Z,1.7
2019-01-02T05:29:15.502Z,1.7
2019-01-02T05:30:22.694Z,1.7
2019-01-02T05:31:29.342Z,1.7
2019-01-02T05:32:36.260Z,1.8
2019-01-02T05:33:43.457Z,1.8
2019-01-02T05:34:50.370Z,1.8
2019-01-02T05:35:57.560Z,1.8
2019-01-02T05:37:04.765Z,1.8
2019-01-02T05:38:11.956Z,1.8
2019-01-02T05:39:19.155Z,1.7
2019-01-02T05:40:26.080Z,1.7
2019-01-02T05:41:32.724Z,1.7
2019-01-02T05:42:39.916Z,1.6
2019-01-02T05:43:47.106Z,1.6
2019-01-02T05:44:54.025Z,1.6
2019-01-02T05:46:00.939Z,1.6
2019-01-02T05:47:08.131Z,1.6
2019-01-02T05:48:15.324Z,1.6
2019-01-02T05:49:22.243Z,1.6
2019-01-02T05:50:29.182Z,1.6
2019-01-02T05:51:36.378Z,1.6
2019-01-02T05:52:43.579Z,1.6
2019-01-02T05:53:50.774Z,1.5
2019-01-02T05:54:57.697Z,1.5
2019-01-02T05:56:04.618Z,1.5
2019-01-02T05:57:11.817Z,1.5
2019-01-02T05:58:19.009Z,1.5
2019-01-02T05:59:26.202Z,1.5
2019-01-02T06:00:33.400Z,1.5
2019-01-02T06:01:46.337Z,1.5
2019-01-02T06:02:53.261Z,1.5
2019-01-02T06:04:00.451Z,1.5
2019-01-02T06:05:07.643Z,1.5
2019-01-02T06:06:14.564Z,1.5
2019-01-02T06:07:21.485Z,1.5
2019-01-02T06:08:28.685Z,1.5
2019-01-02T06:09:35.878Z,1.5
2019-01-02T06:10:43.075Z,1.5
2019-01-02T06:11:50.275Z,1.5
2019-01-02T06:12:57.471Z,1.5
2019-01-02T06:14:04.666Z,1.5
2019-01-02T06:15:11.876Z,1.5
2019-01-02T06:16:18.527Z,1.5
2019-01-02T06:17:25.732Z,1.5
2019-01-02T06:18:32.653Z,1.5
2019-01-02T06:19:39.571Z,1.6
2019-01-02T06:20:46.491Z,1.6
2019-01-02T06:21:53.423Z,1.6
2019-01-02T06:23:00.619Z,1.6
2019-01-02T06:24:07.813Z,1.5
2019-01-02T06:25:14.740Z,1.5
2019-01-02T06:26:21.931Z,1.5
2019-01-02T06:27:29.123Z,1.5
2019-01-02T06:28:36.315Z,1.5
2019-01-02T06:29:43.508Z,1.5
2019-01-02T06:30:50.700Z,1.5
2019-01-02T06:31:57.903Z,1.5
2019-01-02T06:33:05.106Z,1.5
2019-01-02T06:34:12.021Z,1.5
2019-01-02T06:35:18.944Z,1.5
2019-01-02T06:36:27.549Z,1.5
2019-01-02T06:37:34.467Z,1.5
2019-01-02T06:38:41.657Z,1.4
2019-01-02T06:39:48.853Z,1.4
2019-01-02T06:40:56.048Z,1.4
2019-01-02T06:42:03.238Z,1.4
2019-01-02T06:43:10.435Z,1.5
2019-01-02T06:44:17.654Z,1.5
2019-01-02T06:45:24.573Z,1.5
2019-01-02T06:46:31.764Z,1.5
2019-01-02T06:47:38.982Z,1.5
2019-01-02T06:48:45.900Z,1.5
2019-01-02T06:49:53.094Z,1.5
2019-01-02T06:51:00.011Z,1.5
2019-01-02T06:52:07.209Z,1.5
2019-01-02T06:53:14.149Z,1.5
2019-01-02T06:54:21.066Z,1.5
2019-01-02T06:55:28.261Z,1.5
2019-01-02T06:56:35.461Z,1.5
2019-01-02T06:57:42.657Z,1.5
2019-01-02T06:58:49.859Z,1.5
2019-01-02T06:59:57.049Z,1.5
2019-01-02T07:01:04.249Z,1.5
2019-01-02T07:02:11.462Z,1.4
2019-01-02T07:03:18.652Z,1.4
2019-01-02T07:04:25.839Z,1.4
2019-01-02T07:05:33.034Z,1.3
2019-01-02T07:06:40.230Z,1.3
2019-01-02T07:07:47.153Z,1.3
2019-01-02T07:08:54.352Z,1.3
2019-01-02T07:10:01.315Z,1.2
2019-01-02T07:11:08.506Z,1.2
2019-01-02T07:12:15.157Z,1.2
2019-01-02T07:13:22.079Z,1.2
2019-01-02T07:14:29.273Z,1.2
2019-01-02T07:15:36.191Z,1.2
2019-01-02T07:16:43.382Z,1.1
2019-01-02T07:17:50.578Z,1.1
2019-01-02T07:18:57.772Z,1.1
2019-01-02T07:20:04.968Z,1.1
2019-01-02T07:21:12.792Z,1.1
2019-01-02T07:22:19.686Z,1.1
2019-01-02T07:23:26.886Z,1.1
2019-01-02T07:24:34.078Z,1.1
2019-01-02T07:25:41.014Z,1.1
2019-01-02T07:26:48.819Z,1.1
2019-01-02T07:27:55.740Z,1.1
2019-01-02T07:29:02.657Z,1
2019-01-02T07:30:09.575Z,1
2019-01-02T07:31:16.774Z,1
2019-01-02T07:32:25.186Z,1
2019-01-02T07:33:47.036Z,0.9
2019-01-02T07:34:54.236Z,0.9
2019-01-02T07:36:00.883Z,0.9
2019-01-02T07:37:08.081Z,0.9
2019-01-02T07:38:15.008Z,0.9
2019-01-02T07:39:21.933Z,0.9
2019-01-02T07:40:29.127Z,0.9
2019-01-02T07:41:36.053Z,0.9
2019-01-02T07:42:43.241Z,0.9
2019-01-02T07:43:50.437Z,0.9
2019-01-02T07:44:57.627Z,0.9
2019-01-02T07:46:04.828Z,0.9
2019-01-02T07:47:12.021Z,0.9
2019-01-02T07:48:19.219Z,0.9
2019-01-02T07:49:26.413Z,0.9
2019-01-02T07:50:33.609Z,0.9
2019-01-02T07:51:40.529Z,0.9
2019-01-02T07:52:47.726Z,0.9
2019-01-02T23:00:06.474Z,-1
2019-01-02T23:01:13.416Z,-1
2019-01-02T23:02:20.357Z,-1
2019-01-02T23:03:27.568Z,-1.1
2019-01-02T23:04:34.782Z,-1
2019-01-02T23:05:41.993Z,-1.1
2019-01-02T23:06:49.207Z,-1.1
2019-01-02T23:07:56.417Z,-1.1
2019-01-02T23:09:03.629Z,-1.2
2019-01-02T23:10:10.832Z,-1.2
2019-01-02T23:11:18.043Z,-1.2
2019-01-02T23:12:24.986Z,-1.2
2019-01-02T23:13:32.202Z,-1.3
2019-01-02T23:14:39.141Z,-1.3
2019-01-02T23:15:46.358Z,-1.3
2019-01-02T23:16:53.521Z,-1.3
2019-01-02T23:18:00.189Z,-1.4
2019-01-02T23:19:07.408Z,-1.4
2019-01-02T23:20:14.618Z,-1.4
2019-01-02T23:21:21.832Z,-1.4
2019-01-02T23:22:28.778Z,-1.5
2019-01-02T23:23:35.986Z,-1.4
2019-01-02T23:24:42.947Z,-1.5
2019-01-02T23:25:50.161Z,-1.5
2019-01-02T23:26:57.358Z,-1.5
2019-01-02T23:28:04.562Z,-1.5
2019-01-02T23:29:11.771Z,-1.6
2019-01-02T23:30:18.434Z,-1.5
2019-01-02T23:31:40.284Z,-1.6
2019-01-02T23:32:47.498Z,-1.6
2019-01-02T23:33:54.701Z,-1.6
2019-01-02T23:35:01.908Z,-1.7
2019-01-02T23:36:08.849Z,-1.7
2019-01-02T23:37:15.797Z,-1.7
2019-01-02T23:38:22.740Z,-1.7
2019-01-02T23:39:29.952Z,-1.7
2019-01-02T23:40:37.168Z,-1.7
2019-01-02T23:41:44.372Z,-1.7
2019-01-02T23:42:51.578Z,-1.7
2019-01-02T23:43:58.539Z,-1.8
2019-01-02T23:45:05.754Z,-1.8
2019-01-02T23:46:12.686Z,-1.8
2019-01-02T23:47:19.833Z,-1.9
2019-01-02T23:48:27.038Z,-1.9
2019-01-02T23:49:33.971Z,-1.8
2019-01-02T23:50:40.899Z,-1.8
2019-01-02T23:51:48.103Z,-1.8
2019-01-02T23:52:55.309Z,-1.8
2019-01-02T23:54:02.518Z,-1.8
2019-01-02T23:55:09.447Z,-1.9
2019-01-02T23:56:16.650Z,-1.9
2019-01-02T23:57:23.587Z,-1.9
2019-01-02T23:58:30.810Z,-1.9
2019-01-02T23:59:37.996Z,-1.9
